sensor_id;sensor_type;location;lat;lon;timestamp;pressure;altitude;pressure_sealevel;temperature
76583;BMP280;65462;52.148;7.940;2023-03-01T00:01:15;102257.97;;;0.69
76583;BMP280;65462;52.148;7.940;2023-03-01T00:03:41;102252.78;;;0.69
76583;BMP280;65462;52.148;7.940;2023-03-01T00:06:06;102257.16;;;0.68
76583;BMP280;65462;52.148;7.940;2023-03-01T00:08:32;102261.00;;;0.66
76583;BMP280;65462;52.148;7.940;2023-03-01T00:11:05;102257.81;;;0.64
76583;BMP280;65462;52.148;7.940;2023-03-01T00:13:31;102251.63;;;0.58
76583;BMP280;65462;52.148;7.940;2023-03-01T00:15:56;102251.63;;;0.58
76583;BMP280;65462;52.148;7.940;2023-03-01T00:18:21;102254.81;;;0.53
76583;BMP280;65462;52.148;7.940;2023-03-01T00:20:54;102242.03;;;0.52
76583;BMP280;65462;52.148;7.940;2023-03-01T00:23:20;102231.63;;;0.52
76583;BMP280;65462;52.148;7.940;2023-03-01T00:25:46;102241.44;;;0.50
76583;BMP280;65462;52.148;7.940;2023-03-01T00:28:11;102247.03;;;0.53
76583;BMP280;65462;52.148;7.940;2023-03-01T00:30:37;102247.63;;;0.49
76583;BMP280;65462;52.148;7.940;2023-03-01T00:33:02;102235.66;;;0.41
76583;BMP280;65462;52.148;7.940;2023-03-01T00:35:27;102242.47;;;0.36
76583;BMP280;65462;52.148;7.940;2023-03-01T00:37:52;102242.69;;;0.34
76583;BMP280;65462;52.148;7.940;2023-03-01T00:40:26;102250.91;;;0.31
76583;BMP280;65462;52.148;7.940;2023-03-01T00:42:52;102244.72;;;0.26
76583;BMP280;65462;52.148;7.940;2023-03-01T00:45:17;102250.53;;;0.21
76583;BMP280;65462;52.148;7.940;2023-03-01T00:47:43;102252.53;;;0.19
76583;BMP280;65462;52.148;7.940;2023-03-01T00:50:09;102257.34;;;0.16
76583;BMP280;65462;52.148;7.940;2023-03-01T00:52:34;102259.53;;;0.19
76583;BMP280;65462;52.148;7.940;2023-03-01T00:55:00;102255.31;;;0.18
76583;BMP280;65462;52.148;7.940;2023-03-01T00:57:25;102252.72;;;0.18
76583;BMP280;65462;52.148;7.940;2023-03-01T00:59:51;102247.13;;;0.14
76583;BMP280;65462;52.148;7.940;2023-03-01T01:02:17;102258.50;;;0.13
76583;BMP280;65462;52.148;7.940;2023-03-01T01:04:43;102242.94;;;0.07
76583;BMP280;65462;52.148;7.940;2023-03-01T01:07:08;102244.94;;;0.05
76583;BMP280;65462;52.148;7.940;2023-03-01T01:09:33;102236.75;;;0.01
76583;BMP280;65462;52.148;7.940;2023-03-01T01:11:59;102241.34;;;-0.01
76583;BMP280;65462;52.148;7.940;2023-03-01T01:14:24;102239.34;;;-0.06
76583;BMP280;65462;52.148;7.940;2023-03-01T01:16:49;102248.16;;;-0.07
76583;BMP280;65462;52.148;7.940;2023-03-01T01:19:16;102240.75;;;-0.10
76583;BMP280;65462;52.148;7.940;2023-03-01T01:21:41;102234.16;;;-0.19
76583;BMP280;65462;52.148;7.940;2023-03-01T01:24:10;102237.56;;;-0.18
76583;BMP280;65462;52.148;7.940;2023-03-01T01:26:35;102234.38;;;-0.27
76583;BMP280;65462;52.148;7.940;2023-03-01T01:29:02;102230.13;;;-0.34
76583;BMP280;65462;52.148;7.940;2023-03-01T01:31:28;102233.13;;;-0.37
76583;BMP280;65462;52.148;7.940;2023-03-01T01:33:54;102229.72;;;-0.38
76583;BMP280;65462;52.148;7.940;2023-03-01T01:36:20;102227.94;;;-0.44
76583;BMP280;65462;52.148;7.940;2023-03-01T01:38:46;102222.75;;;-0.44
76583;BMP280;65462;52.148;7.940;2023-03-01T01:41:12;102212.16;;;-0.49
76583;BMP280;65462;52.148;7.940;2023-03-01T01:43:45;102207.38;;;-0.52
76583;BMP280;65462;52.148;7.940;2023-03-01T01:46:42;102204.56;;;-0.51
76583;BMP280;65462;52.148;7.940;2023-03-01T01:51:49;102198.56;;;-0.58
76583;BMP280;65462;52.148;7.940;2023-03-01T01:54:19;102198.16;;;-0.61
76583;BMP280;65462;52.148;7.940;2023-03-01T01:57:00;102196.56;;;-0.69
76583;BMP280;65462;52.148;7.940;2023-03-01T01:59:27;102191.38;;;-0.69
76583;BMP280;65462;52.148;7.940;2023-03-01T02:01:54;102195.19;;;-0.71
76583;BMP280;65462;52.148;7.940;2023-03-01T02:04:20;102189.38;;;-0.73
76583;BMP280;65462;52.148;7.940;2023-03-01T02:06:51;102190.56;;;-0.76
76583;BMP280;65462;52.148;7.940;2023-03-01T02:09:20;102190.56;;;-0.82
76583;BMP280;65462;52.148;7.940;2023-03-01T02:11:47;102188.94;;;-0.83
76583;BMP280;65462;52.148;7.940;2023-03-01T02:14:14;102188.13;;;-0.90
76583;BMP280;65462;52.148;7.940;2023-03-01T02:16:39;102196.53;;;-0.95
76583;BMP280;65462;52.148;7.940;2023-03-01T02:19:07;102188.53;;;-0.93
76583;BMP280;65462;52.148;7.940;2023-03-01T02:24:25;102186.56;;;-0.91
76583;BMP280;65462;52.148;7.940;2023-03-01T02:26:55;102187.34;;;-0.97
76583;BMP280;65462;52.148;7.940;2023-03-01T02:29:22;102175.75;;;-1.01
76583;BMP280;65462;52.148;7.940;2023-03-01T02:31:49;102173.75;;;-0.99
76583;BMP280;65462;52.148;7.940;2023-03-01T02:34:18;102175.78;;;-0.95
76583;BMP280;65462;52.148;7.940;2023-03-01T02:36:47;102169.78;;;-0.95
76583;BMP280;65462;52.148;7.940;2023-03-01T02:39:26;102175.78;;;-0.95
76583;BMP280;65462;52.148;7.940;2023-03-01T02:41:54;102176.59;;;-0.94
76583;BMP280;65462;52.148;7.940;2023-03-01T02:44:21;102176.59;;;-0.94
76583;BMP280;65462;52.148;7.940;2023-03-01T02:46:49;102186.94;;;-0.94
76583;BMP280;65462;52.148;7.940;2023-03-01T02:49:23;102186.56;;;-0.91
76583;BMP280;65462;52.148;7.940;2023-03-01T02:57:29;102166.22;;;-0.94
76583;BMP280;65462;52.148;7.940;2023-03-01T02:59:57;102169.00;;;-0.89
76583;BMP280;65462;52.148;7.940;2023-03-01T03:02:29;102170.41;;;-0.87
76583;BMP280;65462;52.148;7.940;2023-03-01T03:05:04;102173.19;;;-0.88
76583;BMP280;65462;52.148;7.940;2023-03-01T03:07:31;102171.81;;;-0.84
76583;BMP280;65462;52.148;7.940;2023-03-01T03:09:57;102176.78;;;-0.89
76583;BMP280;65462;52.148;7.940;2023-03-01T03:12:22;102172.78;;;-0.92
76583;BMP280;65462;52.148;7.940;2023-03-01T03:14:47;102176.59;;;-0.94
76583;BMP280;65462;52.148;7.940;2023-03-01T03:17:12;102164.59;;;-0.95
76583;BMP280;65462;52.148;7.940;2023-03-01T03:19:38;102162.97;;;-1.10
76583;BMP280;65462;52.148;7.940;2023-03-01T03:22:03;102166.19;;;-1.08
76583;BMP280;65462;52.148;7.940;2023-03-01T03:24:28;102164.97;;;-1.12
76583;BMP280;65462;52.148;7.940;2023-03-01T03:27:02;102156.19;;;-1.11
76583;BMP280;65462;52.148;7.940;2023-03-01T03:29:28;102162.38;;;-1.12
76583;BMP280;65462;52.148;7.940;2023-03-01T03:31:53;102157.75;;;-1.16
76583;BMP280;65462;52.148;7.940;2023-03-01T03:34:18;102165.75;;;-1.18
76583;BMP280;65462;52.148;7.940;2023-03-01T03:36:43;102161.78;;;-1.14
76583;BMP280;65462;52.148;7.940;2023-03-01T03:39:09;102164.75;;;-1.17
76583;BMP280;65462;52.148;7.940;2023-03-01T03:41:34;102157.38;;;-1.20
76583;BMP280;65462;52.148;7.940;2023-03-01T03:44:00;102148.78;;;-1.27
76583;BMP280;65462;52.148;7.940;2023-03-01T03:46:25;102149.34;;;-1.31
76583;BMP280;65462;52.148;7.940;2023-03-01T03:48:51;102125.53;;;-1.48
76583;BMP280;65462;52.148;7.940;2023-03-01T03:51:17;102139.16;;;-1.39
76583;BMP280;65462;52.148;7.940;2023-03-01T03:53:43;102142.50;;;-1.39
76583;BMP280;65462;52.148;7.940;2023-03-01T03:56:09;102136.13;;;-1.43
76583;BMP280;65462;52.148;7.940;2023-03-01T03:58:35;102132.75;;;-1.43
76583;BMP280;65462;52.148;7.940;2023-03-01T04:01:00;102130.97;;;-1.43
76583;BMP280;65462;52.148;7.940;2023-03-01T04:03:27;102130.34;;;-1.45
76583;BMP280;65462;52.148;7.940;2023-03-01T04:05:53;102123.19;;;-1.43
76583;BMP280;65462;52.148;7.940;2023-03-01T04:08:20;102127.59;;;-1.37
76583;BMP280;65462;52.148;7.940;2023-03-01T04:10:50;102124.59;;;-1.40
76583;BMP280;65462;52.148;7.940;2023-03-01T04:13:18;102121.59;;;-1.37
76583;BMP280;65462;52.148;7.940;2023-03-01T04:15:45;102110.22;;;-1.43
76583;BMP280;65462;52.148;7.940;2023-03-01T04:18:12;102114.38;;;-1.48
76583;BMP280;65462;52.148;7.940;2023-03-01T04:20:38;102111.75;;;-1.55
76583;BMP280;65462;52.148;7.940;2023-03-01T04:23:09;102111.78;;;-1.62
76583;BMP280;65462;52.148;7.940;2023-03-01T04:28:18;102113.53;;;-1.69
76583;BMP280;65462;52.148;7.940;2023-03-01T04:30:44;102112.91;;;-1.71
76583;BMP280;65462;52.148;7.940;2023-03-01T04:33:10;102108.16;;;-1.67
76583;BMP280;65462;52.148;7.940;2023-03-01T04:35:36;102112.75;;;-1.63
76583;BMP280;65462;52.148;7.940;2023-03-01T04:38:03;102105.41;;;-1.59
76583;BMP280;65462;52.148;7.940;2023-03-01T04:40:28;102102.56;;;-1.64
76583;BMP280;65462;52.148;7.940;2023-03-01T04:42:54;102102.97;;;-1.67
76583;BMP280;65462;52.148;7.940;2023-03-01T04:45:19;102103.75;;;-1.67
76583;BMP280;65462;52.148;7.940;2023-03-01T04:47:46;102100.78;;;-1.64
76583;BMP280;65462;52.148;7.940;2023-03-01T04:50:13;102100.59;;;-1.62
76583;BMP280;65462;52.148;7.940;2023-03-01T04:52:39;102097.41;;;-1.64
76583;BMP280;65462;52.148;7.940;2023-03-01T04:55:04;102113.31;;;-1.67
76583;BMP280;65462;52.148;7.940;2023-03-01T04:57:30;102097.19;;;-1.69
76583;BMP280;65462;52.148;7.940;2023-03-01T04:59:56;102098.56;;;-1.73
76583;BMP280;65462;52.148;7.940;2023-03-01T05:02:21;102091.63;;;-1.66
76583;BMP280;65462;52.148;7.940;2023-03-01T05:04:46;102100.59;;;-1.69
76583;BMP280;65462;52.148;7.940;2023-03-01T05:07:12;102091.38;;;-1.71
76583;BMP280;65462;52.148;7.940;2023-03-01T05:09:38;102103.97;;;-1.68
76583;BMP280;65462;52.148;7.940;2023-03-01T05:12:03;102097.59;;;-1.66
76583;BMP280;65462;52.148;7.940;2023-03-01T05:14:29;102102.56;;;-1.64
76583;BMP280;65462;52.148;7.940;2023-03-01T05:16:54;102108.16;;;-1.67
76583;BMP280;65462;52.148;7.940;2023-03-01T05:19:19;102102.97;;;-1.67
76583;BMP280;65462;52.148;7.940;2023-03-01T05:21:48;102106.56;;;-1.68
76583;BMP280;65462;52.148;7.940;2023-03-01T05:24:33;102098.56;;;-1.73
76583;BMP280;65462;52.148;7.940;2023-03-01T05:26:59;102108.31;;;-1.75
76583;BMP280;65462;52.148;7.940;2023-03-01T05:29:26;102107.31;;;-1.74
76583;BMP280;65462;52.148;7.940;2023-03-01T05:34:17;102112.28;;;-1.79
76583;BMP280;65462;52.148;7.940;2023-03-01T05:36:43;102111.69;;;-1.81
76583;BMP280;65462;52.148;7.940;2023-03-01T05:39:08;102109.69;;;-1.79
76583;BMP280;65462;52.148;7.940;2023-03-01T05:41:33;102110.06;;;-1.82
76583;BMP280;65462;52.148;7.940;2023-03-01T05:43:58;102106.94;;;-1.78
76583;BMP280;65462;52.148;7.940;2023-03-01T05:46:24;102099.94;;;-1.77
76583;BMP280;65462;52.148;7.940;2023-03-01T05:48:49;102099.72;;;-1.82
76583;BMP280;65462;52.148;7.940;2023-03-01T05:51:14;102106.50;;;-1.81
76583;BMP280;65462;52.148;7.940;2023-03-01T05:53:40;102112.06;;;-1.84
76583;BMP280;65462;52.148;7.940;2023-03-01T05:56:05;102105.28;;;-1.85
76583;BMP280;65462;52.148;7.940;2023-03-01T05:58:31;102109.03;;;-1.88
76583;BMP280;65462;52.148;7.940;2023-03-01T06:00:56;102108.81;;;-1.86
76583;BMP280;65462;52.148;7.940;2023-03-01T06:03:21;102104.63;;;-1.87
76583;BMP280;65462;52.148;7.940;2023-03-01T06:05:47;102103.63;;;-1.93
76583;BMP280;65462;52.148;7.940;2023-03-01T06:08:12;102092.63;;;-2.01
76583;BMP280;65462;52.148;7.940;2023-03-01T06:10:38;102102.00;;;-2.00
76583;BMP280;65462;52.148;7.940;2023-03-01T06:13:04;102102.34;;;-2.03
76583;BMP280;65462;52.148;7.940;2023-03-01T06:15:29;102087.63;;;-2.03
76583;BMP280;65462;52.148;7.940;2023-03-01T06:17:55;102093.44;;;-2.01
76583;BMP280;65462;52.148;7.940;2023-03-01T06:20:25;102097.44;;;-1.98
76583;BMP280;65462;52.148;7.940;2023-03-01T06:22:51;102098.66;;;-1.94
76583;BMP280;65462;52.148;7.940;2023-03-01T06:25:19;102101.25;;;-1.94
76583;BMP280;65462;52.148;7.940;2023-03-01T06:27:45;102090.47;;;-1.98
76583;BMP280;65462;52.148;7.940;2023-03-01T06:30:13;102093.06;;;-1.98
76583;BMP280;65462;52.148;7.940;2023-03-01T06:32:39;102107.19;;;-2.00
76583;BMP280;65462;52.148;7.940;2023-03-01T06:35:07;102101.78;;;-1.99
76583;BMP280;65462;52.148;7.940;2023-03-01T06:37:33;102105.41;;;-1.93
76583;BMP280;65462;52.148;7.940;2023-03-01T06:40:00;102099.25;;;-1.92
76583;BMP280;65462;52.148;7.940;2023-03-01T06:42:29;102097.25;;;-1.90
76583;BMP280;65462;52.148;7.940;2023-03-01T06:44:54;102106.19;;;-1.93
76583;BMP280;65462;52.148;7.940;2023-03-01T06:47:20;102105.19;;;-1.98
76583;BMP280;65462;52.148;7.940;2023-03-01T06:49:45;102104.63;;;-1.94
76583;BMP280;65462;52.148;7.940;2023-03-01T06:52:11;102103.63;;;-1.93
76583;BMP280;65462;52.148;7.940;2023-03-01T06:54:36;102106.03;;;-1.91
76583;BMP280;65462;52.148;7.940;2023-03-01T06:57:01;102103.81;;;-1.94
76583;BMP280;65462;52.148;7.940;2023-03-01T06:59:26;102096.06;;;-1.94
76583;BMP280;65462;52.148;7.940;2023-03-01T07:01:52;102089.09;;;-1.94
76583;BMP280;65462;52.148;7.940;2023-03-01T07:04:17;102090.88;;;-1.94
76583;BMP280;65462;52.148;7.940;2023-03-01T07:06:42;102087.25;;;-2.00
76583;BMP280;65462;52.148;7.940;2023-03-01T07:09:07;102086.09;;;-1.97
76583;BMP280;65462;52.148;7.940;2023-03-01T07:11:33;102081.91;;;-1.98
76583;BMP280;65462;52.148;7.940;2023-03-01T07:13:58;102084.50;;;-1.92
76583;BMP280;65462;52.148;7.940;2023-03-01T07:16:25;102087.31;;;-1.87
76583;BMP280;65462;52.148;7.940;2023-03-01T07:18:50;102089.38;;;-1.82
76583;BMP280;65462;52.148;7.940;2023-03-01T07:21:15;102081.03;;;-1.78
76583;BMP280;65462;52.148;7.940;2023-03-01T07:23:41;102086.41;;;-1.73
76583;BMP280;65462;52.148;7.940;2023-03-01T07:26:07;102070.03;;;-1.80
76583;BMP280;65462;52.148;7.940;2023-03-01T07:28:32;102080.66;;;-1.68
76583;BMP280;65462;52.148;7.940;2023-03-01T07:31:04;102081.84;;;-1.64
76583;BMP280;65462;52.148;7.940;2023-03-01T07:33:29;102081.28;;;-1.60
76583;BMP280;65462;52.148;7.940;2023-03-01T07:36:01;102085.69;;;-1.53
76583;BMP280;65462;52.148;7.940;2023-03-01T07:38:29;102091.84;;;-1.55
76583;BMP280;65462;52.148;7.940;2023-03-01T07:40:58;102078.09;;;-1.48
76583;BMP280;65462;52.148;7.940;2023-03-01T07:43:24;102080.34;;;-1.45
76583;BMP280;65462;52.148;7.940;2023-03-01T07:45:49;102087.13;;;-1.38
76583;BMP280;65462;52.148;7.940;2023-03-01T07:48:14;102080.38;;;-1.32
76583;BMP280;65462;52.148;7.940;2023-03-01T07:50:40;102085.56;;;-1.26
76583;BMP280;65462;52.148;7.940;2023-03-01T07:53:05;102083.78;;;-1.19
76583;BMP280;65462;52.148;7.940;2023-03-01T07:55:30;102081.63;;;-1.09
76583;BMP280;65462;52.148;7.940;2023-03-01T07:57:55;102081.44;;;-1.00
76583;BMP280;65462;52.148;7.940;2023-03-01T08:00:21;102081.22;;;-0.92
76583;BMP280;65462;52.148;7.940;2023-03-01T08:02:46;102090.41;;;-0.83
76583;BMP280;65462;52.148;7.940;2023-03-01T08:05:12;102087.81;;;-0.77
76583;BMP280;65462;52.148;7.940;2023-03-01T08:07:37;102087.81;;;-0.64
76583;BMP280;65462;52.148;7.940;2023-03-01T08:10:03;102084.81;;;-0.54
76583;BMP280;65462;52.148;7.940;2023-03-01T08:12:28;102080.00;;;-0.44
76583;BMP280;65462;52.148;7.940;2023-03-01T08:14:54;102076.41;;;-0.36
76583;BMP280;65462;52.148;7.940;2023-03-01T08:17:19;102076.44;;;-0.30
76583;BMP280;65462;52.148;7.940;2023-03-01T08:19:45;102075.00;;;-0.26
76583;BMP280;65462;52.148;7.940;2023-03-01T08:22:10;102075.19;;;-0.21
76583;BMP280;65462;52.148;7.940;2023-03-01T08:24:35;102081.56;;;-0.10
76583;BMP280;65462;52.148;7.940;2023-03-01T08:27:00;102082.94;;;-0.01
76583;BMP280;65462;52.148;7.940;2023-03-01T08:29:28;102081.50;;;0.10
76583;BMP280;65462;52.148;7.940;2023-03-01T08:31:53;102087.66;;;0.22
76583;BMP280;65462;52.148;7.940;2023-03-01T08:34:18;102084.22;;;0.28
76583;BMP280;65462;52.148;7.940;2023-03-01T08:36:45;102074.94;;;0.38
76583;BMP280;65462;52.148;7.940;2023-03-01T08:39:16;102073.28;;;0.50
76583;BMP280;65462;52.148;7.940;2023-03-01T08:41:42;102070.22;;;0.60
76583;BMP280;65462;52.148;7.940;2023-03-01T08:44:09;102074.16;;;0.69
76583;BMP280;65462;52.148;7.940;2023-03-01T08:46:36;102074.69;;;0.78
76583;BMP280;65462;52.148;7.940;2023-03-01T08:49:06;102069.63;;;0.89
76583;BMP280;65462;52.148;7.940;2023-03-01T08:51:32;102064.16;;;0.97
76583;BMP280;65462;52.148;7.940;2023-03-01T08:54:10;102065.72;;;1.05
76583;BMP280;65462;52.148;7.940;2023-03-01T08:56:36;102058.28;;;1.08
76583;BMP280;65462;52.148;7.940;2023-03-01T08:59:02;102061.63;;;1.16
76583;BMP280;65462;52.148;7.940;2023-03-01T09:01:27;102070.34;;;1.28
76583;BMP280;65462;52.148;7.940;2023-03-01T09:03:53;102070.00;;;1.36
76583;BMP280;65462;52.148;7.940;2023-03-01T09:06:18;102061.50;;;1.47
76583;BMP280;65462;52.148;7.940;2023-03-01T09:08:46;102061.38;;;1.60
76583;BMP280;65462;52.148;7.940;2023-03-01T09:11:14;102061.44;;;1.72
76583;BMP280;65462;52.148;7.940;2023-03-01T09:13:41;102063.22;;;1.78
76583;BMP280;65462;52.148;7.940;2023-03-01T09:16:07;102063.34;;;1.83
76583;BMP280;65462;52.148;7.940;2023-03-01T09:18:33;102053.03;;;1.88
76583;BMP280;65462;52.148;7.940;2023-03-01T09:21:25;102064.53;;;1.98
76583;BMP280;65462;52.148;7.940;2023-03-01T09:23:50;102067.06;;;2.05
76583;BMP280;65462;52.148;7.940;2023-03-01T09:26:19;102061.34;;;2.14
76583;BMP280;65462;52.148;7.940;2023-03-01T09:28:45;102058.28;;;2.17
76583;BMP280;65462;52.148;7.940;2023-03-01T09:31:12;102055.72;;;2.29
76583;BMP280;65462;52.148;7.940;2023-03-01T09:33:38;102051.69;;;2.45
76583;BMP280;65462;52.148;7.940;2023-03-01T09:36:07;102054.78;;;2.53
76583;BMP280;65462;52.148;7.940;2023-03-01T09:38:33;102051.50;;;2.58
76583;BMP280;65462;52.148;7.940;2023-03-01T09:40:59;102043.75;;;2.63
76583;BMP280;65462;52.148;7.940;2023-03-01T09:43:42;102046.63;;;2.73
76583;BMP280;65462;52.148;7.940;2023-03-01T09:46:11;102042.31;;;2.79
76583;BMP280;65462;52.148;7.940;2023-03-01T09:48:43;102041.97;;;2.75
76583;BMP280;65462;52.148;7.940;2023-03-01T09:51:16;102043.38;;;2.78
76583;BMP280;65462;52.148;7.940;2023-03-01T09:53:42;102039.81;;;2.72
76583;BMP280;65462;52.148;7.940;2023-03-01T09:56:20;102033.47;;;2.80
76583;BMP280;65462;52.148;7.940;2023-03-01T10:01:55;102037.47;;;3.05
76583;BMP280;65462;52.148;7.940;2023-03-01T10:07:26;102031.53;;;3.21
76583;BMP280;65462;52.148;7.940;2023-03-01T10:09:53;102023.78;;;3.26
76583;BMP280;65462;52.148;7.940;2023-03-01T10:12:21;102034.81;;;3.28
76583;BMP280;65462;52.148;7.940;2023-03-01T10:14:51;102039.47;;;3.26
76583;BMP280;65462;52.148;7.940;2023-03-01T10:17:26;102036.06;;;3.38
76583;BMP280;65462;52.148;7.940;2023-03-01T10:19:52;102050.00;;;3.43
76583;BMP280;65462;52.148;7.940;2023-03-01T10:22:24;102031.53;;;3.45
76583;BMP280;65462;52.148;7.940;2023-03-01T10:24:54;102034.66;;;3.47
76583;BMP280;65462;52.148;7.940;2023-03-01T10:27:29;102038.31;;;3.46
76583;BMP280;65462;52.148;7.940;2023-03-01T10:32:28;102018.06;;;3.64
76583;BMP280;65462;52.148;7.940;2023-03-01T10:34:53;102017.44;;;3.74
76583;BMP280;65462;52.148;7.940;2023-03-01T10:37:21;102012.53;;;3.77
76583;BMP280;65462;52.148;7.940;2023-03-01T10:40:02;102002.19;;;3.82
76583;BMP280;65462;52.148;7.940;2023-03-01T10:42:36;102004.09;;;3.87
76583;BMP280;65462;52.148;7.940;2023-03-01T10:45:33;102002.50;;;3.86
76583;BMP280;65462;52.148;7.940;2023-03-01T10:50:34;102007.28;;;3.89
76583;BMP280;65462;52.148;7.940;2023-03-01T10:53:02;102004.03;;;3.99
76583;BMP280;65462;52.148;7.940;2023-03-01T10:55:39;102014.47;;;3.99
76583;BMP280;65462;52.148;7.940;2023-03-01T10:58:17;102014.47;;;3.99
76583;BMP280;65462;52.148;7.940;2023-03-01T11:00:51;102011.53;;;3.95
76583;BMP280;65462;52.148;7.940;2023-03-01T11:05:55;102014.91;;;4.07
76583;BMP280;65462;52.148;7.940;2023-03-01T11:14:03;102019.78;;;4.32
76583;BMP280;65462;52.148;7.940;2023-03-01T11:16:37;102006.75;;;4.37
76583;BMP280;65462;52.148;7.940;2023-03-01T11:19:13;101996.00;;;4.50
76583;BMP280;65462;52.148;7.940;2023-03-01T11:24:31;101996.75;;;4.84
76583;BMP280;65462;52.148;7.940;2023-03-01T11:27:02;102008.91;;;4.95
76583;BMP280;65462;52.148;7.940;2023-03-01T11:29:40;101990.09;;;4.98
76583;BMP280;65462;52.148;7.940;2023-03-01T11:32:09;101999.66;;;5.09
76583;BMP280;65462;52.148;7.940;2023-03-01T11:34:55;101993.47;;;5.15
76583;BMP280;65462;52.148;7.940;2023-03-01T11:37:33;101981.47;;;5.19
76583;BMP280;65462;52.148;7.940;2023-03-01T11:40:23;101989.44;;;5.29
76583;BMP280;65462;52.148;7.940;2023-03-01T11:42:57;101989.66;;;5.23
76583;BMP280;65462;52.148;7.940;2023-03-01T11:45:26;101980.06;;;5.12
76583;BMP280;65462;52.148;7.940;2023-03-01T11:48:12;101979.34;;;5.16
76583;BMP280;65462;52.148;7.940;2023-03-01T11:50:47;101970.75;;;5.21
76583;BMP280;65462;52.148;7.940;2023-03-01T12:03:46;101948.53;;;5.28
76583;BMP280;65462;52.148;7.940;2023-03-01T12:07:19;101941.72;;;5.27
76583;BMP280;65462;52.148;7.940;2023-03-01T12:09:42;101933.19;;;5.37
76583;BMP280;65462;52.148;7.940;2023-03-01T12:14:47;101933.59;;;5.50
76583;BMP280;65462;52.148;7.940;2023-03-01T12:17:46;101925.53;;;5.62
76583;BMP280;65462;52.148;7.940;2023-03-01T12:43:51;101904.44;;;6.62
76583;BMP280;65462;52.148;7.940;2023-03-01T12:46:47;101897.88;;;6.70
76583;BMP280;65462;52.148;7.940;2023-03-01T12:49:23;101900.03;;;6.83
76583;BMP280;65462;52.148;7.940;2023-03-01T12:51:59;101903.22;;;6.95
76583;BMP280;65462;52.148;7.940;2023-03-01T12:54:28;101900.34;;;7.02
76583;BMP280;65462;52.148;7.940;2023-03-01T12:56:57;101906.66;;;7.06
76583;BMP280;65462;52.148;7.940;2023-03-01T12:59:42;101894.88;;;7.28
76583;BMP280;65462;52.148;7.940;2023-03-01T13:05:29;101881.72;;;7.33
76583;BMP280;65462;52.148;7.940;2023-03-01T13:10:41;101867.53;;;7.54
76583;BMP280;65462;52.148;7.940;2023-03-01T13:15:35;101873.06;;;7.73
76583;BMP280;65462;52.148;7.940;2023-03-01T13:26:16;101863.44;;;8.17
76583;BMP280;65462;52.148;7.940;2023-03-01T13:33:57;101863.47;;;8.76
76583;BMP280;65462;52.148;7.940;2023-03-01T13:46:49;101838.50;;;8.98
76583;BMP280;65462;52.148;7.940;2023-03-01T13:49:21;101840.09;;;8.99
76583;BMP280;65462;52.148;7.940;2023-03-01T13:51:48;101832.19;;;9.04
76583;BMP280;65462;52.148;7.940;2023-03-01T13:54:15;101835.09;;;8.97
76583;BMP280;65462;52.148;7.940;2023-03-01T13:56:41;101828.53;;;8.95
76583;BMP280;65462;52.148;7.940;2023-03-01T13:59:20;101829.31;;;8.95
76583;BMP280;65462;52.148;7.940;2023-03-01T14:01:52;101818.75;;;9.00
76583;BMP280;65462;52.148;7.940;2023-03-01T14:04:23;101816.34;;;9.04
76583;BMP280;65462;52.148;7.940;2023-03-01T14:06:48;101818.13;;;9.08
76583;BMP280;65462;52.148;7.940;2023-03-01T14:09:18;101822.59;;;9.08
76583;BMP280;65462;52.148;7.940;2023-03-01T14:12:02;101824.19;;;9.09
76583;BMP280;65462;52.148;7.940;2023-03-01T14:14:58;101813.38;;;9.10
76583;BMP280;65462;52.148;7.940;2023-03-01T14:22:36;101808.94;;;9.06
76583;BMP280;65462;52.148;7.940;2023-03-01T14:25:17;101808.63;;;9.07
76583;BMP280;65462;52.148;7.940;2023-03-01T14:27:44;101798.63;;;9.09
76583;BMP280;65462;52.148;7.940;2023-03-01T14:30:14;101802.31;;;9.08
76583;BMP280;65462;52.148;7.940;2023-03-01T14:32:40;101778.88;;;9.07
76583;BMP280;65462;52.148;7.940;2023-03-01T14:35:26;101790.19;;;9.07
76583;BMP280;65462;52.148;7.940;2023-03-01T14:37:52;101783.94;;;9.03
76583;BMP280;65462;52.148;7.940;2023-03-01T14:40:36;101778.88;;;9.07
76583;BMP280;65462;52.148;7.940;2023-03-01T14:43:10;101779.19;;;9.00
76583;BMP280;65462;52.148;7.940;2023-03-01T15:00:20;101763.78;;;8.83
76583;BMP280;65462;52.148;7.940;2023-03-01T15:02:47;101757.47;;;8.79
76583;BMP280;65462;52.148;7.940;2023-03-01T15:05:14;101753.31;;;8.73
76583;BMP280;65462;52.148;7.940;2023-03-01T15:07:42;101753.44;;;8.58
76583;BMP280;65462;52.148;7.940;2023-03-01T15:10:25;101760.38;;;8.44
76583;BMP280;65462;52.148;7.940;2023-03-01T15:12:51;101749.09;;;8.39
76583;BMP280;65462;52.148;7.940;2023-03-01T15:15:32;101740.97;;;8.30
76583;BMP280;65462;52.148;7.940;2023-03-01T15:18:00;101746.00;;;8.27
76583;BMP280;65462;52.148;7.940;2023-03-01T15:20:27;101744.69;;;8.24
76583;BMP280;65462;52.148;7.940;2023-03-01T15:22:55;101748.16;;;8.19
76583;BMP280;65462;52.148;7.940;2023-03-01T15:25:24;101745.25;;;8.16
76583;BMP280;65462;52.148;7.940;2023-03-01T15:27:51;101752.41;;;8.15
76583;BMP280;65462;52.148;7.940;2023-03-01T15:30:29;101753.41;;;8.19
76583;BMP280;65462;52.148;7.940;2023-03-01T15:35:52;101753.22;;;8.06
76583;BMP280;65462;52.148;7.940;2023-03-01T15:40:53;101746.66;;;7.98
76583;BMP280;65462;52.148;7.940;2023-03-01T15:43:42;101752.97;;;8.02
76583;BMP280;65462;52.148;7.940;2023-03-01T15:46:31;101749.84;;;8.00
76583;BMP280;65462;52.148;7.940;2023-03-01T15:49:05;101744.34;;;7.92
76583;BMP280;65462;52.148;7.940;2023-03-01T15:51:45;101741.44;;;7.88
76583;BMP280;65462;52.148;7.940;2023-03-01T15:54:19;101732.03;;;7.82
76583;BMP280;65462;52.148;7.940;2023-03-01T15:56:45;101727.81;;;7.76
76583;BMP280;65462;52.148;7.940;2023-03-01T15:59:11;101732.06;;;7.72
76583;BMP280;65462;52.148;7.940;2023-03-01T16:01:40;101736.28;;;7.68
76583;BMP280;65462;52.148;7.940;2023-03-01T16:04:05;101728.38;;;7.63
76583;BMP280;65462;52.148;7.940;2023-03-01T16:06:31;101722.63;;;7.56
76583;BMP280;65462;52.148;7.940;2023-03-01T16:08:56;101723.94;;;7.53
76583;BMP280;65462;52.148;7.940;2023-03-01T16:11:22;101726.63;;;7.48
76583;BMP280;65462;52.148;7.940;2023-03-01T16:13:48;101719.50;;;7.44
76583;BMP280;65462;52.148;7.940;2023-03-01T16:16:14;101722.94;;;7.39
76583;BMP280;65462;52.148;7.940;2023-03-01T16:18:42;101722.16;;;7.34
76583;BMP280;65462;52.148;7.940;2023-03-01T16:21:12;101729.78;;;7.30
76583;BMP280;65462;52.148;7.940;2023-03-01T16:23:38;101721.91;;;7.30